• Join FlightAware (Why Join?)
  • Login
  • US Flag 
07:11PM EDT


 

Airport Tracker/Info


-or-


 

Live Flight TrackerFlight Track Log ✈ GLA25F ✈ 31.05.2013 ✈ KSOW - KPHX

Flight Track Log - Related Links

Times and Time Zones

All times are in EDT time to prevent confusion due to time zone crossing. See the GLA25F flight status page for this flight to view local times or setup timezone preferences in your user account.

Time Position Orientation Groundspeed Altitude Reporting Facility
EDT Latitude Longitude Course Direction KTS MPH feet Rate Location/Type
12:17PM 34.3619 -110.1511 275° West 204 235 12,000  Level Albuquerque Center
12:18PM 34.3689 -110.2117 278° West 208 239 13,500 1,440 Climbing Albuquerque Center
12:19PM 34.3797 -110.2867 280° West 202 232 15,000 1,200 Climbing Albuquerque Center
12:20PM 34.3942 -110.3600 283° West 200 230 16,000 480 Climbing Albuquerque Center
12:21PM 34.3694 -110.3178 264° West  Level FlightAware Approximate
12:21PM 34.3978 -110.4253 274° West 201 231 16,000  Level Albuquerque Center
12:22PM 34.3822 -110.4911 254° West 212 244 15,900  Descending Albuquerque Center
12:23PM 34.3461 -110.5508 234° Southwest 219 252 16,000  Climbing Albuquerque Center
12:24PM 34.3106 -110.6108 234° Southwest 219 252 16,000 -60 Level Albuquerque Center
12:25PM 34.2744 -110.6708 234° Southwest 220 253 15,900 -60 Descending Albuquerque Center
12:26PM 34.2261 -110.7408 230° Southwest 225 259 15,900  Level Albuquerque Center
12:27PM 34.1917 -110.8006 235° Southwest 220 253 15,900 -60 Level Albuquerque Center
12:28PM 34.1561 -110.8594 234° Southwest 217 250 15,800 -540 Descending Albuquerque Center
12:29PM 34.1247 -110.9231 239° Southwest 220 253 14,900 -1,020 Descending Albuquerque Center
12:30PM 34.0986 -110.9883 244° Southwest 217 250 13,700 -1,200 Descending Albuquerque Center
12:31PM 34.0722 -111.0525 244° Southwest 216 249 12,600 -1,260 Descending Albuquerque Center
12:32PM 34.0408 -111.1356 246° West 221 254 11,200 -780 Descending Albuquerque Center
12:33PM 34.0100 -111.2117 244° Southwest 235 270 11,100 -120 Descending Albuquerque Center
12:34PM 33.9756 -111.2900 242° Southwest 254 292 11,000  Descending Albuquerque Center
12:35PM 33.9344 -111.3642 236° Southwest 264 304 11,100 -300 Climbing Albuquerque Center
12:36PM 33.8917 -111.4339 234° Southwest 258 297 10,400 -480 Descending Albuquerque Center
12:37PM 33.8414 -111.4922 224° Southwest 252 290 10,100 -180 Descending Albuquerque Center
12:38PM 33.8011 -111.5614 235° Southwest 252 290 10,100  Level Albuquerque Center
12:39PM 33.7500 -111.6431 233° Southwest 254 292 10,100 -60 Level Albuquerque Center
12:40PM 33.7081 -111.7108 233° Southwest 252 290 10,000  Descending Albuquerque Center
12:41PM 33.6647 -111.7767 232° Southwest 251 289 10,100  Climbing Albuquerque Center
12:43PM 33.6217 -111.8436 232° Southwest 252 290 10,100 -120 Level Albuquerque Center
12:43PM 33.6000 -111.8833 237° Southwest 252 290 10,000 -660 Descending Phoenix TRACON
12:44PM 33.5500 -111.9500 228° Southwest 248 285 9,200 -1,200 Descending Phoenix TRACON
12:45PM 33.5333 -112.0167 253° West 252 290 7,800 -1,380 Descending Phoenix TRACON
12:46PM 33.5167 -112.1000 257° West 240 276 6,600 -1,140 Descending Phoenix TRACON
12:47PM 33.5089 -112.1367 256° West 240 276 5,800 -1,800 Descending Albuquerque Center
12:48PM 33.4419 -112.1608 197° South 236 272 3,400 -1,620 Descending Albuquerque Center
12:49PM 33.4286 -112.0950 104° East 194 223 2,400 -960 Descending Albuquerque Center
12:50PM 33.4292 -112.0442 89° East 165 190 1,500 -600 Descending Albuquerque Center
12:51PM 33.4286 -112.0103 91° East 94 108 1,200 -300 Descending Albuquerque Center